createdAt,value
2022-09-07T00:00:28.984Z,18.57
2022-09-07T00:02:33.102Z,18.51
2022-09-07T00:04:35.039Z,18.54
2022-09-07T00:06:36.793Z,18.46
2022-09-07T00:08:39.726Z,18.53
2022-09-07T00:10:42.619Z,18.39
2022-09-07T00:12:50.017Z,18.46
2022-09-07T00:14:51.686Z,18.45
2022-09-07T00:16:53.351Z,18.47
2022-09-07T00:18:57.298Z,18.56
2022-09-07T00:21:04.792Z,18.58
2022-09-07T00:23:06.509Z,18.55
2022-09-07T00:25:08.713Z,18.66
2022-09-07T00:27:11.353Z,18.65
2022-09-07T00:29:13.036Z,18.69
2022-09-07T00:31:26.343Z,18.64
2022-09-07T00:33:28.914Z,18.66
2022-09-07T00:35:30.594Z,18.64
2022-09-07T00:37:32.373Z,18.69
2022-09-07T00:39:34.493Z,18.74
2022-09-07T00:41:36.200Z,18.73
2022-09-07T00:43:47.802Z,18.79
2022-09-07T00:45:49.470Z,18.72
2022-09-07T00:47:51.081Z,18.85
2022-09-07T00:50:00.170Z,18.79
2022-09-07T00:52:06.074Z,18.82
2022-09-07T00:54:17.690Z,18.74
2022-09-07T00:56:24.262Z,18.66
2022-09-07T00:58:26.706Z,18.82
2022-09-07T01:00:31.597Z,18.79
2022-09-07T01:02:33.646Z,18.75
2022-09-07T01:04:36.373Z,18.67
2022-09-07T01:06:39.725Z,18.74
2022-09-07T01:08:44.017Z,18.78
2022-09-07T01:10:46.917Z,18.77
2022-09-07T01:12:48.563Z,18.68
2022-09-07T01:14:53.081Z,18.75
2022-09-07T01:17:15.797Z,18.70
2022-09-07T01:19:38.366Z,18.68
2022-09-07T01:21:49.410Z,18.71
2022-09-07T01:24:11.091Z,18.77
2022-09-07T01:26:40.363Z,18.78
2022-09-07T01:28:42.293Z,18.87
2022-09-07T01:30:54.967Z,18.69
2022-09-07T01:33:11.970Z,18.75
2022-09-07T01:35:59.902Z,18.77
2022-09-07T01:38:12.008Z,18.74
2022-09-07T01:40:19.714Z,18.72
2022-09-07T01:42:27.553Z,18.73
2022-09-07T01:44:41.759Z,18.70
2022-09-07T01:47:29.965Z,18.70
2022-09-07T01:49:48.651Z,18.75
2022-09-07T01:51:55.933Z,18.79
2022-09-07T01:54:04.346Z,18.78
2022-09-07T01:56:11.412Z,18.78
2022-09-07T01:58:24.943Z,18.69
2022-09-07T02:00:27.039Z,18.74
2022-09-07T02:02:35.474Z,18.77
2022-09-07T02:04:46.347Z,18.74
2022-09-07T02:07:27.563Z,18.77
2022-09-07T02:09:51.650Z,18.74
2022-09-07T02:11:54.784Z,18.77
2022-09-07T02:14:22.410Z,18.85
2022-09-07T02:16:29.796Z,18.75
2022-09-07T02:18:39.370Z,18.83
2022-09-07T02:20:48.446Z,18.83
2022-09-07T02:22:57.750Z,18.82
2022-09-07T02:25:03.455Z,18.72
2022-09-07T02:27:13.625Z,18.83
2022-09-07T02:29:15.544Z,18.73
2022-09-07T02:31:17.402Z,18.84
2022-09-07T02:33:19.347Z,18.87
2022-09-07T02:35:21.173Z,18.79
2022-09-07T02:37:23.782Z,18.83
2022-09-07T02:39:25.589Z,18.86
2022-09-07T02:41:43.241Z,18.92
2022-09-07T02:43:44.936Z,18.95
2022-09-07T02:46:24.201Z,18.96
2022-09-07T02:48:32.154Z,18.89
2022-09-07T02:50:47.786Z,18.98
2022-09-07T02:53:12.222Z,18.86
2022-09-07T02:55:27.146Z,18.88
2022-09-07T02:57:31.847Z,18.81
2022-09-07T02:59:45.702Z,18.85
2022-09-07T03:02:01.665Z,18.78
2022-09-07T03:04:06.094Z,18.65
2022-09-07T03:06:32.657Z,18.69
2022-09-07T03:08:48.859Z,18.73
2022-09-07T03:10:52.559Z,18.74
2022-09-07T03:12:56.505Z,18.69
2022-09-07T03:14:58.160Z,18.68
2022-09-07T03:17:01.287Z,18.72
2022-09-07T03:19:03.352Z,18.69
2022-09-07T03:21:05.194Z,18.73
2022-09-07T03:23:06.883Z,18.71
2022-09-07T03:25:09.256Z,18.72
2022-09-07T03:27:11.617Z,18.75
2022-09-07T03:29:13.449Z,18.77
2022-09-07T03:31:16.102Z,18.86
2022-09-07T03:33:17.939Z,18.90
2022-09-07T03:35:19.646Z,18.85
2022-09-07T03:37:21.282Z,18.91
2022-09-07T03:39:24.228Z,18.94
2022-09-07T03:41:26.970Z,18.97
2022-09-07T03:43:29.998Z,19.00
2022-09-07T03:45:33.152Z,19.03
2022-09-07T03:47:35.798Z,19.06
2022-09-07T03:49:37.493Z,19.03
2022-09-07T03:51:39.525Z,19.01
2022-09-07T03:53:43.351Z,18.98
2022-09-07T03:55:55.206Z,19.00
2022-09-07T03:57:57.187Z,18.99
2022-09-07T03:59:58.908Z,18.99
2022-09-07T04:02:01.407Z,18.88
2022-09-07T04:04:03.334Z,18.87
2022-09-07T04:06:05.992Z,18.89
2022-09-07T04:08:07.662Z,18.86
2022-09-07T04:10:09.406Z,18.90
2022-09-07T04:12:15.297Z,18.84
2022-09-07T04:14:17.944Z,18.82
2022-09-07T04:16:22.932Z,18.76
2022-09-07T04:18:25.219Z,18.82
2022-09-07T04:20:27.110Z,18.71
2022-09-07T04:22:28.744Z,18.70
2022-09-07T04:24:30.407Z,18.75
2022-09-07T04:26:34.407Z,18.72
2022-09-07T04:28:36.172Z,18.70
2022-09-07T04:30:45.799Z,18.64
2022-09-07T04:32:47.838Z,18.66
2022-09-07T04:34:57.820Z,18.62
2022-09-07T04:36:59.476Z,18.64
2022-09-07T04:39:04.191Z,18.67
2022-09-07T04:41:09.537Z,18.69
2022-09-07T04:43:13.233Z,18.64
2022-09-07T04:45:14.989Z,18.65
2022-09-07T04:47:17.813Z,18.58
2022-09-07T04:49:20.914Z,18.56
2022-09-07T04:51:29.646Z,18.65
2022-09-07T04:53:31.344Z,18.63
2022-09-07T04:55:33.030Z,18.50
2022-09-07T04:57:56.254Z,18.59
2022-09-07T04:59:57.902Z,18.61
2022-09-07T05:02:00.558Z,18.59
2022-09-07T05:04:04.317Z,18.54
2022-09-07T05:06:08.015Z,18.58
2022-09-07T05:08:09.678Z,18.61
2022-09-07T05:10:11.350Z,18.60
2022-09-07T05:12:13.010Z,18.57
2022-09-07T05:14:17.659Z,18.53
2022-09-07T05:16:23.479Z,18.56
2022-09-07T05:18:26.056Z,18.47
2022-09-07T05:20:27.734Z,18.48
2022-09-07T05:22:29.425Z,18.45
2022-09-07T05:24:32.789Z,18.45
2022-09-07T05:26:36.764Z,18.46
2022-09-07T05:28:38.825Z,18.51
2022-09-07T05:33:02.760Z,18.44
2022-09-07T05:35:04.662Z,18.45
2022-09-07T05:37:07.165Z,18.39
2022-09-07T05:39:09.606Z,18.45
2022-09-07T05:41:17.680Z,18.44
2022-09-07T05:43:20.913Z,18.43
2022-09-07T05:45:26.700Z,18.40
2022-09-07T05:47:29.208Z,18.45
2022-09-07T05:49:30.960Z,18.42
2022-09-07T05:51:32.618Z,18.40
2022-09-07T05:53:39.734Z,18.48
2022-09-07T05:55:41.388Z,18.39
2022-09-07T05:57:43.118Z,18.43
2022-09-07T05:59:45.127Z,18.50
2022-09-07T06:01:49.465Z,18.46
2022-09-07T06:03:51.300Z,18.41
2022-09-07T06:06:03.134Z,18.45
2022-09-07T06:08:04.904Z,18.45
2022-09-07T06:12:29.692Z,18.35
2022-09-07T06:14:32.220Z,18.44
2022-09-07T06:16:35.144Z,18.38
2022-09-07T06:18:46.134Z,18.41
2022-09-07T06:20:47.771Z,18.41
2022-09-07T06:22:50.118Z,18.40
2022-09-07T06:25:13.835Z,18.35
2022-09-07T06:27:23.162Z,18.34
2022-09-07T06:29:25.148Z,18.31
2022-09-07T06:31:30.075Z,18.31
2022-09-07T06:33:32.308Z,18.28
2022-09-07T06:35:34.073Z,18.30
2022-09-07T06:37:35.729Z,18.24
2022-09-07T06:39:37.476Z,18.28
2022-09-07T06:44:00.942Z,18.27
2022-09-07T06:48:24.858Z,18.32
2022-09-07T06:50:27.947Z,18.31
2022-09-07T06:52:29.788Z,18.35
2022-09-07T06:56:53.579Z,18.25
2022-09-07T06:58:55.826Z,18.24
2022-09-07T07:00:57.589Z,18.36
2022-09-07T07:02:59.377Z,18.31
2022-09-07T07:05:10.655Z,18.30
2022-09-07T07:07:27.384Z,18.28
2022-09-07T07:09:59.011Z,18.28
2022-09-07T07:12:00.769Z,18.32
2022-09-07T07:14:03.059Z,18.27
2022-09-07T07:16:08.469Z,18.34
2022-09-07T07:18:21.194Z,18.25
2022-09-07T07:20:23.342Z,18.31
2022-09-07T07:22:47.649Z,18.46
2022-09-07T07:24:50.646Z,18.47
2022-09-07T07:26:52.358Z,18.56
2022-09-07T07:29:03.877Z,18.61
2022-09-07T07:31:09.931Z,18.61
2022-09-07T07:33:13.961Z,18.77
2022-09-07T07:35:16.099Z,18.75
2022-09-07T07:37:27.835Z,18.83
2022-09-07T07:41:55.496Z,18.97
2022-09-07T07:44:00.505Z,18.99
2022-09-07T07:46:05.600Z,19.01
2022-09-07T07:48:07.948Z,18.95
2022-09-07T07:52:50.729Z,18.99
2022-09-07T07:54:56.600Z,19.06
2022-09-07T07:56:58.227Z,19.07
2022-09-07T07:59:00.114Z,19.13
2022-09-07T08:01:08.104Z,19.16
2022-09-07T08:03:09.830Z,19.16
2022-09-07T08:05:11.572Z,19.20
2022-09-07T08:07:13.304Z,19.21
2022-09-07T08:09:15.143Z,19.24
2022-09-07T08:11:19.492Z,19.17
2022-09-07T08:13:21.652Z,19.17
2022-09-07T08:15:23.516Z,19.24
2022-09-07T08:17:34.823Z,19.18
2022-09-07T08:19:37.530Z,19.15
2022-09-07T08:21:39.811Z,19.23
2022-09-07T08:23:42.002Z,19.25
2022-09-07T08:25:54.668Z,19.27
2022-09-07T08:27:56.335Z,19.29
2022-09-07T08:29:58.046Z,19.32
2022-09-07T08:31:59.700Z,19.44
2022-09-07T08:34:02.174Z,19.37
2022-09-07T08:36:23.804Z,19.43
2022-09-07T08:38:26.560Z,19.41
2022-09-07T08:40:34.494Z,19.37
2022-09-07T08:42:47.207Z,19.36
2022-09-07T08:45:03.851Z,19.50
2022-09-07T08:47:21.808Z,19.48
2022-09-07T08:49:37.318Z,19.55
2022-09-07T08:51:52.865Z,19.60
2022-09-07T08:53:54.807Z,19.63
2022-09-07T08:56:11.428Z,19.67
2022-09-07T08:58:49.297Z,19.57
2022-09-07T09:01:30.797Z,19.59
2022-09-07T09:03:29.874Z,19.56
2022-09-07T09:05:49.169Z,19.53
2022-09-07T09:08:10.904Z,19.59
2022-09-07T09:10:29.670Z,19.64
2022-09-07T09:12:48.652Z,19.59
2022-09-07T09:15:08.423Z,19.57
2022-09-07T09:17:30.158Z,19.67
2022-09-07T09:19:48.228Z,19.66
2022-09-07T09:22:01.259Z,19.70
2022-09-07T09:24:15.680Z,19.82
2022-09-07T09:26:26.487Z,19.92
2022-09-07T09:28:31.782Z,19.98
2022-09-07T09:30:34.158Z,20.01
2022-09-07T09:32:45.392Z,20.09
2022-09-07T09:35:11.600Z,20.11
2022-09-07T09:37:13.210Z,20.20
2022-09-07T09:39:29.927Z,20.23
2022-09-07T09:41:37.679Z,20.30
2022-09-07T09:44:05.953Z,20.46
2022-09-07T09:46:32.686Z,20.61
2022-09-07T09:48:39.371Z,20.64
2022-09-07T09:53:32.581Z,20.74
2022-09-07T09:55:37.945Z,20.86
2022-09-07T10:00:29.195Z,21.24
2022-09-07T10:04:55.438Z,21.15
2022-09-07T10:07:20.990Z,21.25
2022-09-07T10:09:37.574Z,21.11
2022-09-07T10:14:24.974Z,20.85
2022-09-07T10:16:40.534Z,20.75
2022-09-07T10:18:56.370Z,20.74
2022-09-07T10:21:28.603Z,20.64
2022-09-07T10:23:30.231Z,20.41
2022-09-07T10:25:40.694Z,20.47
2022-09-07T10:27:46.843Z,20.31
2022-09-07T10:29:49.092Z,20.09
2022-09-07T10:31:57.335Z,19.99
2022-09-07T10:34:26.759Z,20.00
2022-09-07T10:36:35.001Z,20.04
2022-09-07T10:38:48.213Z,20.12
2022-09-07T10:41:07.462Z,20.15
2022-09-07T10:43:30.581Z,20.26
2022-09-07T10:46:10.603Z,20.32
2022-09-07T10:48:42.814Z,20.38
2022-09-07T10:50:50.208Z,20.45
2022-09-07T10:53:36.983Z,20.53
2022-09-07T10:55:35.872Z,20.61
2022-09-07T10:58:02.626Z,20.51
2022-09-07T11:00:11.224Z,20.54
2022-09-07T11:02:20.562Z,20.56
2022-09-07T11:05:00.189Z,20.58
2022-09-07T11:07:15.394Z,20.71
2022-09-07T11:09:32.664Z,20.74
2022-09-07T11:12:01.594Z,20.81
2022-09-07T11:14:19.030Z,20.98
2022-09-07T11:21:57.524Z,21.25
2022-09-07T11:24:37.888Z,21.35
2022-09-07T11:26:51.833Z,21.36
2022-09-07T11:31:41.787Z,21.43
2022-09-07T11:36:32.364Z,21.53
2022-09-07T11:38:51.411Z,21.64
2022-09-07T11:41:17.335Z,21.71
2022-09-07T11:43:27.371Z,21.75
2022-09-07T11:45:54.468Z,21.75
2022-09-07T11:48:19.497Z,21.90
2022-09-07T11:50:31.495Z,21.89
2022-09-07T11:52:55.924Z,21.84
2022-09-07T11:55:03.489Z,21.99
2022-09-07T11:57:34.768Z,21.96
2022-09-07T11:59:57.919Z,22.05
2022-09-07T12:02:11.847Z,22.01
2022-09-07T12:04:55.491Z,22.16
2022-09-07T12:07:23.414Z,22.29
2022-09-07T12:09:50.802Z,22.31
2022-09-07T12:12:10.742Z,22.34
2022-09-07T12:14:41.761Z,22.52
2022-09-07T12:17:12.231Z,22.58
2022-09-07T12:19:18.054Z,22.62
2022-09-07T12:21:42.950Z,22.66
2022-09-07T12:23:46.486Z,22.56
2022-09-07T12:25:50.187Z,22.66
2022-09-07T12:27:53.618Z,22.60
2022-09-07T12:30:15.960Z,22.55
2022-09-07T12:32:57.467Z,22.45
2022-09-07T12:35:00.449Z,22.42
2022-09-07T12:37:34.642Z,22.19
2022-09-07T12:39:39.842Z,22.19
2022-09-07T12:42:31.905Z,22.20
2022-09-07T12:44:29.449Z,22.12
2022-09-07T12:46:35.029Z,22.06
2022-09-07T12:48:54.987Z,22.01
2022-09-07T12:54:20.563Z,21.65
2022-09-07T12:56:46.373Z,21.86
2022-09-07T12:58:57.320Z,21.88
2022-09-07T13:01:11.013Z,22.04
2022-09-07T13:05:59.178Z,22.24
2022-09-07T13:08:40.373Z,22.33
2022-09-07T13:11:07.107Z,22.41
2022-09-07T13:16:00.000Z,22.80
2022-09-07T13:18:03.614Z,23.01
2022-09-07T13:20:19.463Z,23.09
2022-09-07T13:22:32.943Z,23.14
2022-09-07T13:24:47.586Z,23.14
2022-09-07T13:27:14.913Z,23.01
2022-09-07T13:29:18.286Z,23.10
2022-09-07T13:31:54.778Z,22.91
2022-09-07T13:33:57.228Z,22.90
2022-09-07T13:36:02.373Z,22.85
2022-09-07T13:38:04.922Z,22.95
2022-09-07T13:40:11.727Z,22.74
2022-09-07T13:42:23.301Z,22.73
2022-09-07T13:44:50.465Z,22.75
2022-09-07T13:47:23.655Z,22.74
2022-09-07T13:49:31.079Z,22.57
2022-09-07T13:52:00.724Z,22.45
2022-09-07T13:54:15.605Z,22.36
2022-09-07T13:56:44.540Z,22.28
2022-09-07T13:58:56.756Z,22.27
2022-09-07T14:01:06.205Z,22.22
2022-09-07T14:03:23.625Z,22.30
2022-09-07T14:05:25.809Z,22.21
2022-09-07T14:07:40.612Z,22.16
2022-09-07T14:10:07.723Z,22.09
2022-09-07T14:12:20.240Z,22.07
2022-09-07T14:14:24.742Z,22.10
2022-09-07T14:16:26.437Z,22.05
2022-09-07T14:18:31.210Z,22.21
2022-09-07T14:20:42.238Z,22.19
2022-09-07T14:22:45.999Z,22.28
2022-09-07T14:24:53.110Z,22.27
2022-09-07T14:26:54.946Z,22.36
2022-09-07T14:28:57.120Z,22.39
2022-09-07T14:31:19.850Z,22.38
2022-09-07T14:33:22.202Z,22.22
2022-09-07T14:35:26.812Z,22.06
2022-09-07T14:37:29.567Z,22.07
2022-09-07T14:39:38.681Z,22.09
2022-09-07T14:41:45.280Z,21.98
2022-09-07T14:43:58.462Z,22.08
2022-09-07T14:46:17.874Z,22.19
2022-09-07T14:48:29.250Z,22.15
2022-09-07T14:50:39.151Z,22.08
2022-09-07T14:53:33.653Z,21.97
2022-09-07T14:55:44.694Z,21.65
2022-09-07T14:58:16.010Z,21.47
2022-09-07T15:00:29.823Z,21.48
2022-09-07T15:02:36.844Z,21.41
2022-09-07T15:04:38.671Z,21.48
2022-09-07T15:09:07.112Z,21.58
2022-09-07T15:11:33.661Z,21.67
2022-09-07T15:13:36.806Z,21.85
2022-09-07T15:15:41.449Z,21.89
2022-09-07T15:17:58.987Z,22.10
2022-09-07T15:20:44.166Z,22.23
2022-09-07T15:22:54.400Z,22.35
2022-09-07T15:25:08.240Z,22.40
2022-09-07T15:27:29.554Z,22.45
2022-09-07T15:29:32.149Z,22.41
2022-09-07T15:31:43.409Z,22.39
2022-09-07T15:33:47.745Z,22.41
2022-09-07T15:35:54.885Z,22.45
2022-09-07T15:41:20.735Z,22.69
2022-09-07T15:43:20.311Z,22.74
2022-09-07T15:45:23.380Z,22.80
2022-09-07T15:47:47.158Z,23.01
2022-09-07T15:49:53.978Z,22.95
2022-09-07T15:52:11.508Z,22.83
2022-09-07T15:54:14.873Z,22.81
2022-09-07T15:56:17.263Z,22.74
2022-09-07T15:58:21.655Z,22.72
2022-09-07T16:00:23.612Z,22.62
2022-09-07T16:04:48.521Z,22.77
2022-09-07T16:06:50.231Z,22.71
2022-09-07T16:08:53.053Z,22.82
2022-09-07T16:10:55.707Z,22.88
2022-09-07T16:13:16.850Z,22.92
2022-09-07T16:15:19.109Z,22.86
2022-09-07T16:17:34.767Z,22.90
2022-09-07T16:19:53.166Z,23.06
2022-09-07T16:21:59.908Z,23.01
2022-09-07T16:24:01.766Z,23.11
2022-09-07T16:26:07.889Z,22.87
2022-09-07T16:28:09.865Z,22.83
2022-09-07T16:30:27.839Z,22.79
2022-09-07T16:32:49.923Z,22.72
2022-09-07T16:34:51.632Z,22.58
2022-09-07T16:36:53.311Z,22.55
2022-09-07T16:39:13.023Z,22.53
2022-09-07T16:41:21.592Z,22.45
2022-09-07T16:43:30.634Z,22.44
2022-09-07T16:47:56.010Z,22.62
2022-09-07T16:49:59.019Z,22.64
2022-09-07T16:52:00.704Z,22.65
2022-09-07T16:54:03.248Z,22.83
2022-09-07T16:56:08.291Z,22.78
2022-09-07T17:00:33.968Z,22.79
2022-09-07T17:02:35.856Z,22.75
2022-09-07T17:04:39.417Z,22.67
2022-09-07T17:06:41.595Z,22.60
2022-09-07T17:08:44.203Z,22.49
2022-09-07T17:11:05.976Z,22.47
2022-09-07T17:13:58.078Z,22.39
2022-09-07T17:17:06.321Z,22.27
2022-09-07T17:19:43.058Z,22.17
2022-09-07T17:22:20.416Z,22.12
2022-09-07T17:24:22.198Z,22.02
2022-09-07T17:26:26.886Z,22.06
2022-09-07T17:28:29.220Z,21.95
2022-09-07T17:30:33.574Z,22.04
2022-09-07T17:32:35.367Z,21.91
2022-09-07T17:34:37.213Z,21.94
2022-09-07T17:36:52.075Z,21.88
2022-09-07T17:41:52.250Z,21.93
2022-09-07T17:43:56.549Z,21.96
2022-09-07T17:46:05.654Z,22.00
2022-09-07T17:48:07.470Z,21.97
2022-09-07T17:50:09.967Z,21.81
2022-09-07T17:52:25.858Z,21.79
2022-09-07T17:54:28.053Z,21.74
2022-09-07T17:56:31.529Z,21.68
2022-09-07T17:58:37.751Z,21.69
2022-09-07T18:00:40.234Z,21.70
2022-09-07T18:02:42.112Z,21.58
2022-09-07T18:04:44.481Z,21.50
2022-09-07T18:06:48.753Z,21.58
2022-09-07T18:08:52.309Z,21.51
2022-09-07T18:13:20.386Z,21.41
2022-09-07T18:15:27.404Z,21.38
2022-09-07T18:17:29.164Z,21.44
2022-09-07T18:19:30.956Z,21.41
2022-09-07T18:21:38.490Z,21.29
2022-09-07T18:23:40.689Z,21.42
2022-09-07T18:25:42.403Z,21.45
2022-09-07T18:30:42.825Z,21.39
2022-09-07T18:33:29.029Z,21.43
2022-09-07T18:36:05.698Z,21.39
2022-09-07T18:38:29.956Z,21.40
2022-09-07T18:40:34.302Z,21.35
2022-09-07T18:42:40.535Z,21.45
2022-09-07T18:47:06.375Z,21.44
2022-09-07T18:49:08.041Z,21.35
2022-09-07T18:51:10.875Z,21.33
2022-09-07T18:53:22.054Z,21.38
2022-09-07T18:55:47.319Z,21.40
2022-09-07T18:57:49.473Z,21.28
2022-09-07T18:59:51.191Z,21.26
2022-09-07T19:01:54.093Z,21.30
2022-09-07T19:03:57.381Z,21.32
2022-09-07T19:06:08.205Z,21.31
2022-09-07T19:08:09.986Z,21.37
2022-09-07T19:10:12.469Z,21.37
2022-09-07T19:12:14.357Z,21.30
2022-09-07T19:14:17.604Z,21.31
2022-09-07T19:19:46.943Z,21.29
2022-09-07T19:24:01.157Z,21.23
2022-09-07T19:26:06.648Z,21.15
2022-09-07T19:28:09.437Z,21.21
2022-09-07T19:30:12.939Z,21.18
2022-09-07T19:32:15.688Z,21.17
2022-09-07T19:34:18.698Z,21.15
2022-09-07T19:36:21.441Z,21.07
2022-09-07T19:38:24.772Z,21.15
2022-09-07T19:40:27.594Z,21.10
2022-09-07T19:46:36.942Z,21.17
2022-09-07T19:48:39.556Z,21.16
2022-09-07T19:50:42.490Z,21.22
2022-09-07T19:52:47.203Z,21.07
2022-09-07T19:54:50.280Z,21.12
2022-09-07T19:56:53.387Z,21.19
2022-09-07T20:07:09.874Z,21.10
2022-09-07T20:11:18.537Z,21.24
2022-09-07T20:13:21.278Z,21.20
2022-09-07T20:15:24.408Z,21.25
2022-09-07T20:17:30.602Z,21.27
2022-09-07T20:19:35.980Z,21.25
2022-09-07T20:21:39.258Z,21.30
2022-09-07T20:23:42.708Z,21.29
2022-09-07T20:25:56.287Z,21.27
2022-09-07T20:30:12.583Z,21.30
2022-09-07T20:32:17.931Z,21.30
2022-09-07T20:34:21.241Z,21.22
2022-09-07T20:36:24.446Z,21.20
2022-09-07T20:38:29.210Z,21.13
2022-09-07T20:40:34.126Z,21.18
2022-09-07T20:42:37.196Z,21.22
2022-09-07T20:46:43.623Z,21.14
2022-09-07T20:48:46.945Z,21.16
2022-09-07T20:50:57.450Z,21.16
2022-09-07T20:53:01.049Z,21.16
2022-09-07T20:55:04.697Z,21.09
2022-09-07T20:57:07.814Z,20.96
2022-09-07T20:59:13.241Z,20.52
2022-09-07T21:01:26.390Z,20.28
2022-09-07T21:03:28.864Z,19.90
2022-09-07T21:05:36.092Z,19.30
2022-09-07T21:11:49.690Z,18.78
2022-09-07T21:14:04.023Z,18.51
2022-09-07T21:16:11.685Z,18.36
2022-09-07T21:18:19.671Z,18.34
2022-09-07T21:20:23.533Z,18.25
2022-09-07T21:22:34.183Z,18.16
2022-09-07T21:28:43.057Z,18.11
2022-09-07T21:33:05.002Z,18.06
2022-09-07T21:35:22.797Z,18.14
2022-09-07T21:37:35.055Z,18.18
2022-09-07T21:39:40.410Z,18.22
2022-09-07T21:41:53.566Z,18.15
2022-09-07T21:43:56.655Z,18.20
2022-09-07T21:50:17.578Z,18.34
2022-09-07T21:52:20.133Z,18.33
2022-09-07T21:56:25.368Z,18.31
2022-09-07T21:58:40.414Z,18.36
2022-09-07T22:00:42.541Z,18.38
2022-09-07T22:04:58.911Z,18.33
2022-09-07T22:07:06.009Z,18.40
2022-09-07T22:09:09.988Z,18.43
2022-09-07T22:11:16.967Z,18.40
2022-09-07T22:13:20.938Z,18.39
2022-09-07T22:19:30.428Z,18.32
2022-09-07T22:21:40.982Z,18.31
2022-09-07T22:25:58.438Z,18.15
2022-09-07T22:28:03.922Z,18.12
2022-09-07T22:32:09.307Z,18.17
2022-09-07T22:34:11.386Z,18.20
2022-09-07T22:36:17.127Z,18.20
2022-09-07T22:38:20.268Z,18.22
2022-09-07T22:40:22.167Z,18.25
2022-09-07T22:44:27.781Z,18.23
2022-09-07T22:46:36.029Z,18.22
2022-09-07T22:48:38.953Z,18.15
2022-09-07T22:50:41.065Z,18.22
2022-09-07T22:52:43.077Z,18.20
2022-09-07T22:54:45.913Z,18.15
2022-09-07T22:56:48.007Z,18.15
2022-09-07T22:58:53.871Z,18.17
2022-09-07T23:00:59.737Z,18.23
2022-09-07T23:03:01.797Z,18.14
2022-09-07T23:05:04.322Z,18.07
2022-09-07T23:07:07.838Z,18.16
2022-09-07T23:09:12.193Z,18.25
2022-09-07T23:11:14.118Z,18.25
2022-09-07T23:13:17.159Z,18.25
2022-09-07T23:15:19.087Z,18.21
2022-09-07T23:17:21.220Z,18.15
2022-09-07T23:19:23.357Z,18.11
2022-09-07T23:21:26.810Z,18.14
2022-09-07T23:23:29.849Z,18.21
2022-09-07T23:25:31.816Z,18.13
2022-09-07T23:27:33.734Z,18.15
2022-09-07T23:29:35.623Z,18.14
2022-09-07T23:31:37.907Z,18.04
2022-09-07T23:33:39.829Z,18.13
2022-09-07T23:35:42.216Z,18.15
2022-09-07T23:37:44.367Z,18.07
2022-09-07T23:39:46.335Z,18.13
2022-09-07T23:41:48.300Z,18.08
2022-09-07T23:43:51.474Z,18.03
2022-09-07T23:45:55.348Z,18.04
2022-09-07T23:47:57.183Z,18.08
2022-09-07T23:49:59.100Z,18.10
2022-09-07T23:52:01.128Z,18.07
2022-09-07T23:54:03.339Z,18.11
2022-09-07T23:56:06.083Z,18.08
2022-09-07T23:58:08.849Z,18.15
